sensor_id;sensor_type;location;lat;lon;timestamp;P1;durP1;ratioP1;P2;durP2;ratioP2
43620;SDS011;29213;50.770;7.298;2022-11-03T00:00:28;6.93;;;2.78;;
43620;SDS011;29213;50.770;7.298;2022-11-03T00:02:53;7.28;;;2.95;;
43620;SDS011;29213;50.770;7.298;2022-11-03T00:05:18;5.57;;;2.72;;
43620;SDS011;29213;50.770;7.298;2022-11-03T00:08:02;6.88;;;2.75;;
43620;SDS011;29213;50.770;7.298;2022-11-03T00:10:28;8.00;;;2.95;;
43620;SDS011;29213;50.770;7.298;2022-11-03T00:12:54;8.05;;;3.05;;
43620;SDS011;29213;50.770;7.298;2022-11-03T00:15:20;8.15;;;3.28;;
43620;SDS011;29213;50.770;7.298;2022-11-03T00:17:45;10.82;;;3.35;;
43620;SDS011;29213;50.770;7.298;2022-11-03T00:20:11;9.38;;;3.13;;
43620;SDS011;29213;50.770;7.298;2022-11-03T00:22:36;8.50;;;2.78;;
43620;SDS011;29213;50.770;7.298;2022-11-03T00:25:01;8.93;;;3.25;;
43620;SDS011;29213;50.770;7.298;2022-11-03T00:27:27;6.28;;;2.60;;
43620;SDS011;29213;50.770;7.298;2022-11-03T00:29:52;7.22;;;2.80;;
43620;SDS011;29213;50.770;7.298;2022-11-03T00:32:18;7.20;;;2.83;;
43620;SDS011;29213;50.770;7.298;2022-11-03T00:34:43;6.72;;;2.72;;
43620;SDS011;29213;50.770;7.298;2022-11-03T00:37:09;5.80;;;2.47;;
43620;SDS011;29213;50.770;7.298;2022-11-03T00:39:34;7.00;;;2.50;;
43620;SDS011;29213;50.770;7.298;2022-11-03T00:41:59;6.22;;;2.40;;
43620;SDS011;29213;50.770;7.298;2022-11-03T00:44:25;6.70;;;2.60;;
43620;SDS011;29213;50.770;7.298;2022-11-03T00:46:51;7.70;;;2.65;;
43620;SDS011;29213;50.770;7.298;2022-11-03T00:49:16;5.00;;;2.13;;
43620;SDS011;29213;50.770;7.298;2022-11-03T00:51:42;6.30;;;2.60;;
43620;SDS011;29213;50.770;7.298;2022-11-03T00:54:07;6.30;;;2.60;;
43620;SDS011;29213;50.770;7.298;2022-11-03T00:56:34;5.90;;;2.40;;
43620;SDS011;29213;50.770;7.298;2022-11-03T00:59:02;6.55;;;2.72;;
43620;SDS011;29213;50.770;7.298;2022-11-03T01:01:29;6.90;;;2.70;;
43620;SDS011;29213;50.770;7.298;2022-11-03T01:03:59;7.55;;;2.90;;
43620;SDS011;29213;50.770;7.298;2022-11-03T01:06:45;6.28;;;2.42;;
43620;SDS011;29213;50.770;7.298;2022-11-03T01:09:16;6.05;;;2.25;;
43620;SDS011;29213;50.770;7.298;2022-11-03T01:11:42;6.85;;;2.72;;
43620;SDS011;29213;50.770;7.298;2022-11-03T01:14:15;5.47;;;2.33;;
43620;SDS011;29213;50.770;7.298;2022-11-03T01:16:41;6.35;;;2.28;;
43620;SDS011;29213;50.770;7.298;2022-11-03T01:19:07;4.70;;;2.00;;
43620;SDS011;29213;50.770;7.298;2022-11-03T01:21:33;6.28;;;2.13;;
43620;SDS011;29213;50.770;7.298;2022-11-03T01:23:59;8.23;;;2.30;;
43620;SDS011;29213;50.770;7.298;2022-11-03T01:26:28;7.80;;;2.85;;
43620;SDS011;29213;50.770;7.298;2022-11-03T01:28:54;7.20;;;2.20;;
43620;SDS011;29213;50.770;7.298;2022-11-03T01:31:21;7.43;;;2.80;;
43620;SDS011;29213;50.770;7.298;2022-11-03T01:33:48;8.18;;;2.63;;
43620;SDS011;29213;50.770;7.298;2022-11-03T01:36:15;8.70;;;2.25;;
43620;SDS011;29213;50.770;7.298;2022-11-03T01:38:41;7.32;;;2.60;;
43620;SDS011;29213;50.770;7.298;2022-11-03T01:41:08;6.35;;;2.50;;
43620;SDS011;29213;50.770;7.298;2022-11-03T01:43:37;6.60;;;2.33;;
43620;SDS011;29213;50.770;7.298;2022-11-03T01:48:47;9.18;;;2.50;;
43620;SDS011;29213;50.770;7.298;2022-11-03T01:51:19;8.32;;;2.50;;
43620;SDS011;29213;50.770;7.298;2022-11-03T01:53:47;7.75;;;2.42;;
43620;SDS011;29213;50.770;7.298;2022-11-03T01:56:17;6.40;;;2.38;;
43620;SDS011;29213;50.770;7.298;2022-11-03T01:58:45;7.00;;;2.40;;
43620;SDS011;29213;50.770;7.298;2022-11-03T02:01:14;8.57;;;2.67;;
43620;SDS011;29213;50.770;7.298;2022-11-03T02:03:44;6.10;;;2.20;;
43620;SDS011;29213;50.770;7.298;2022-11-03T02:06:16;6.68;;;2.45;;
43620;SDS011;29213;50.770;7.298;2022-11-03T02:08:57;10.07;;;2.50;;
43620;SDS011;29213;50.770;7.298;2022-11-03T02:11:27;6.70;;;2.33;;
43620;SDS011;29213;50.770;7.298;2022-11-03T02:14:12;11.27;;;2.60;;
43620;SDS011;29213;50.770;7.298;2022-11-03T02:16:38;8.73;;;2.60;;
43620;SDS011;29213;50.770;7.298;2022-11-03T02:19:06;9.98;;;2.72;;
43620;SDS011;29213;50.770;7.298;2022-11-03T02:27:24;9.75;;;2.63;;
43620;SDS011;29213;50.770;7.298;2022-11-03T02:29:50;9.70;;;2.40;;
43620;SDS011;29213;50.770;7.298;2022-11-03T02:32:22;10.65;;;3.33;;
43620;SDS011;29213;50.770;7.298;2022-11-03T02:37:35;9.48;;;2.70;;
43620;SDS011;29213;50.770;7.298;2022-11-03T02:40:07;7.78;;;2.85;;
43620;SDS011;29213;50.770;7.298;2022-11-03T02:42:37;10.60;;;2.80;;
43620;SDS011;29213;50.770;7.298;2022-11-03T02:45:07;10.18;;;2.70;;
43620;SDS011;29213;50.770;7.298;2022-11-03T02:47:34;10.75;;;2.53;;
43620;SDS011;29213;50.770;7.298;2022-11-03T02:50:03;8.63;;;2.38;;
43620;SDS011;29213;50.770;7.298;2022-11-03T02:52:36;11.40;;;2.88;;
43620;SDS011;29213;50.770;7.298;2022-11-03T02:55:09;9.23;;;2.80;;
43620;SDS011;29213;50.770;7.298;2022-11-03T02:57:43;9.57;;;2.60;;
43620;SDS011;29213;50.770;7.298;2022-11-03T03:00:15;11.48;;;2.80;;
43620;SDS011;29213;50.770;7.298;2022-11-03T03:02:45;8.48;;;2.50;;
43620;SDS011;29213;50.770;7.298;2022-11-03T03:05:10;10.65;;;2.63;;
43620;SDS011;29213;50.770;7.298;2022-11-03T03:07:40;11.77;;;2.67;;
43620;SDS011;29213;50.770;7.298;2022-11-03T03:10:11;8.73;;;2.70;;
43620;SDS011;29213;50.770;7.298;2022-11-03T03:12:42;8.85;;;2.58;;
43620;SDS011;29213;50.770;7.298;2022-11-03T03:15:12;10.98;;;2.72;;
43620;SDS011;29213;50.770;7.298;2022-11-03T03:17:43;8.95;;;2.33;;
43620;SDS011;29213;50.770;7.298;2022-11-03T03:20:19;7.40;;;2.40;;
43620;SDS011;29213;50.770;7.298;2022-11-03T03:23:01;9.70;;;2.42;;
43620;SDS011;29213;50.770;7.298;2022-11-03T03:25:40;11.38;;;2.55;;
43620;SDS011;29213;50.770;7.298;2022-11-03T03:28:10;9.48;;;2.88;;
43620;SDS011;29213;50.770;7.298;2022-11-03T03:30:40;8.63;;;2.60;;
43620;SDS011;29213;50.770;7.298;2022-11-03T03:33:07;10.70;;;2.80;;
43620;SDS011;29213;50.770;7.298;2022-11-03T03:35:33;9.20;;;2.75;;
43620;SDS011;29213;50.770;7.298;2022-11-03T03:38:09;12.70;;;3.00;;
43620;SDS011;29213;50.770;7.298;2022-11-03T03:40:40;11.63;;;2.90;;
43620;SDS011;29213;50.770;7.298;2022-11-03T03:43:09;9.27;;;2.72;;
43620;SDS011;29213;50.770;7.298;2022-11-03T03:45:38;8.63;;;2.45;;
43620;SDS011;29213;50.770;7.298;2022-11-03T03:48:07;9.88;;;2.42;;
43620;SDS011;29213;50.770;7.298;2022-11-03T03:50:34;9.30;;;2.63;;
43620;SDS011;29213;50.770;7.298;2022-11-03T03:53:03;10.00;;;2.65;;
43620;SDS011;29213;50.770;7.298;2022-11-03T03:55:35;9.88;;;2.80;;
43620;SDS011;29213;50.770;7.298;2022-11-03T03:58:02;11.45;;;3.00;;
43620;SDS011;29213;50.770;7.298;2022-11-03T04:00:29;10.50;;;2.75;;
43620;SDS011;29213;50.770;7.298;2022-11-03T04:02:57;9.40;;;2.60;;
43620;SDS011;29213;50.770;7.298;2022-11-03T04:05:23;11.90;;;2.97;;
43620;SDS011;29213;50.770;7.298;2022-11-03T04:07:50;6.97;;;2.47;;
43620;SDS011;29213;50.770;7.298;2022-11-03T04:10:17;10.15;;;2.58;;
43620;SDS011;29213;50.770;7.298;2022-11-03T04:12:45;7.13;;;2.60;;
43620;SDS011;29213;50.770;7.298;2022-11-03T04:15:30;8.80;;;2.50;;
43620;SDS011;29213;50.770;7.298;2022-11-03T04:18:15;7.35;;;2.25;;
43620;SDS011;29213;50.770;7.298;2022-11-03T04:21:00;8.10;;;2.78;;
43620;SDS011;29213;50.770;7.298;2022-11-03T04:23:44;10.35;;;3.30;;
43620;SDS011;29213;50.770;7.298;2022-11-03T04:26:16;8.20;;;2.70;;
43620;SDS011;29213;50.770;7.298;2022-11-03T04:28:44;7.97;;;2.53;;
43620;SDS011;29213;50.770;7.298;2022-11-03T04:31:13;11.23;;;2.50;;
43620;SDS011;29213;50.770;7.298;2022-11-03T04:33:41;8.75;;;2.53;;
43620;SDS011;29213;50.770;7.298;2022-11-03T04:36:23;7.03;;;2.58;;
43620;SDS011;29213;50.770;7.298;2022-11-03T04:38:50;8.45;;;2.85;;
43620;SDS011;29213;50.770;7.298;2022-11-03T04:41:23;9.25;;;2.70;;
43620;SDS011;29213;50.770;7.298;2022-11-03T04:43:50;10.82;;;2.78;;
43620;SDS011;29213;50.770;7.298;2022-11-03T04:46:22;7.72;;;2.50;;
43620;SDS011;29213;50.770;7.298;2022-11-03T04:48:51;9.23;;;2.63;;
43620;SDS011;29213;50.770;7.298;2022-11-03T04:51:18;11.20;;;3.03;;
43620;SDS011;29213;50.770;7.298;2022-11-03T04:54:12;11.10;;;4.63;;
43620;SDS011;29213;50.770;7.298;2022-11-03T04:59:13;18.77;;;8.90;;
43620;SDS011;29213;50.770;7.298;2022-11-03T05:01:41;20.02;;;10.00;;
43620;SDS011;29213;50.770;7.298;2022-11-03T05:04:10;22.48;;;10.18;;
43620;SDS011;29213;50.770;7.298;2022-11-03T05:06:37;21.10;;;8.52;;
43620;SDS011;29213;50.770;7.298;2022-11-03T05:09:16;11.75;;;4.70;;
43620;SDS011;29213;50.770;7.298;2022-11-03T05:11:45;9.35;;;4.03;;
43620;SDS011;29213;50.770;7.298;2022-11-03T05:14:16;10.95;;;3.13;;
43620;SDS011;29213;50.770;7.298;2022-11-03T05:16:43;7.85;;;2.83;;
43620;SDS011;29213;50.770;7.298;2022-11-03T05:19:14;10.18;;;2.65;;
43620;SDS011;29213;50.770;7.298;2022-11-03T05:21:44;12.02;;;3.05;;
43620;SDS011;29213;50.770;7.298;2022-11-03T05:24:14;8.30;;;2.70;;
43620;SDS011;29213;50.770;7.298;2022-11-03T05:26:41;8.70;;;2.65;;
43620;SDS011;29213;50.770;7.298;2022-11-03T05:31:42;11.35;;;3.08;;
43620;SDS011;29213;50.770;7.298;2022-11-03T05:36:55;8.15;;;2.80;;
43620;SDS011;29213;50.770;7.298;2022-11-03T05:39:39;13.85;;;4.35;;
43620;SDS011;29213;50.770;7.298;2022-11-03T05:42:17;8.02;;;2.50;;
43620;SDS011;29213;50.770;7.298;2022-11-03T05:44:50;10.55;;;2.80;;
43620;SDS011;29213;50.770;7.298;2022-11-03T05:47:20;9.10;;;2.95;;
43620;SDS011;29213;50.770;7.298;2022-11-03T05:49:46;9.55;;;2.83;;
43620;SDS011;29213;50.770;7.298;2022-11-03T05:52:17;11.05;;;2.72;;
43620;SDS011;29213;50.770;7.298;2022-11-03T05:54:46;10.82;;;2.60;;
43620;SDS011;29213;50.770;7.298;2022-11-03T05:57:13;12.30;;;2.75;;
43620;SDS011;29213;50.770;7.298;2022-11-03T05:59:39;9.15;;;2.75;;
43620;SDS011;29213;50.770;7.298;2022-11-03T06:02:07;10.55;;;2.78;;
43620;SDS011;29213;50.770;7.298;2022-11-03T06:05:01;6.90;;;2.30;;
43620;SDS011;29213;50.770;7.298;2022-11-03T06:07:35;6.90;;;2.30;;
43620;SDS011;29213;50.770;7.298;2022-11-03T06:10:00;7.90;;;2.53;;
43620;SDS011;29213;50.770;7.298;2022-11-03T06:12:26;7.45;;;2.72;;
43620;SDS011;29213;50.770;7.298;2022-11-03T06:14:54;7.30;;;2.40;;
43620;SDS011;29213;50.770;7.298;2022-11-03T06:19:54;10.32;;;2.58;;
43620;SDS011;29213;50.770;7.298;2022-11-03T06:22:23;6.65;;;2.47;;
43620;SDS011;29213;50.770;7.298;2022-11-03T06:24:54;8.60;;;2.72;;
43620;SDS011;29213;50.770;7.298;2022-11-03T06:27:22;7.93;;;2.38;;
43620;SDS011;29213;50.770;7.298;2022-11-03T06:29:49;7.95;;;2.47;;
43620;SDS011;29213;50.770;7.298;2022-11-03T06:32:26;10.40;;;3.42;;
43620;SDS011;29213;50.770;7.298;2022-11-03T06:34:53;9.88;;;2.85;;
43620;SDS011;29213;50.770;7.298;2022-11-03T06:37:21;11.23;;;3.20;;
43620;SDS011;29213;50.770;7.298;2022-11-03T06:40:02;7.32;;;2.72;;
43620;SDS011;29213;50.770;7.298;2022-11-03T06:42:40;8.82;;;2.60;;
43620;SDS011;29213;50.770;7.298;2022-11-03T06:47:46;8.75;;;2.55;;
43620;SDS011;29213;50.770;7.298;2022-11-03T06:50:24;10.02;;;2.75;;
43620;SDS011;29213;50.770;7.298;2022-11-03T06:52:52;8.57;;;2.65;;
43620;SDS011;29213;50.770;7.298;2022-11-03T06:55:27;7.38;;;2.60;;
43620;SDS011;29213;50.770;7.298;2022-11-03T06:57:58;11.65;;;2.63;;
43620;SDS011;29213;50.770;7.298;2022-11-03T07:00:47;10.45;;;2.75;;
43620;SDS011;29213;50.770;7.298;2022-11-03T07:03:15;10.23;;;2.40;;
43620;SDS011;29213;50.770;7.298;2022-11-03T07:05:46;7.32;;;2.42;;
43620;SDS011;29213;50.770;7.298;2022-11-03T07:11:20;8.40;;;2.67;;
43620;SDS011;29213;50.770;7.298;2022-11-03T07:13:50;7.90;;;2.55;;
43620;SDS011;29213;50.770;7.298;2022-11-03T07:16:20;10.35;;;3.40;;
43620;SDS011;29213;50.770;7.298;2022-11-03T07:19:04;11.40;;;3.05;;
43620;SDS011;29213;50.770;7.298;2022-11-03T07:21:39;9.25;;;2.70;;
43620;SDS011;29213;50.770;7.298;2022-11-03T07:24:15;7.68;;;2.60;;
43620;SDS011;29213;50.770;7.298;2022-11-03T07:27:12;9.68;;;2.58;;
43620;SDS011;29213;50.770;7.298;2022-11-03T07:29:44;5.95;;;2.35;;
43620;SDS011;29213;50.770;7.298;2022-11-03T07:32:13;10.77;;;2.65;;
43620;SDS011;29213;50.770;7.298;2022-11-03T07:34:42;6.90;;;2.50;;
43620;SDS011;29213;50.770;7.298;2022-11-03T07:37:09;8.50;;;2.88;;
43620;SDS011;29213;50.770;7.298;2022-11-03T07:39:42;7.57;;;2.40;;
43620;SDS011;29213;50.770;7.298;2022-11-03T07:42:17;7.07;;;2.60;;
43620;SDS011;29213;50.770;7.298;2022-11-03T07:44:45;7.07;;;2.50;;
43620;SDS011;29213;50.770;7.298;2022-11-03T07:47:13;9.32;;;3.00;;
43620;SDS011;29213;50.770;7.298;2022-11-03T07:49:43;10.10;;;3.10;;
43620;SDS011;29213;50.770;7.298;2022-11-03T07:52:11;8.73;;;2.63;;
43620;SDS011;29213;50.770;7.298;2022-11-03T07:54:40;5.18;;;2.10;;
43620;SDS011;29213;50.770;7.298;2022-11-03T07:57:13;7.75;;;2.55;;
43620;SDS011;29213;50.770;7.298;2022-11-03T07:59:48;9.00;;;3.22;;
43620;SDS011;29213;50.770;7.298;2022-11-03T08:05:20;7.40;;;2.60;;
43620;SDS011;29213;50.770;7.298;2022-11-03T08:07:46;9.80;;;2.92;;
43620;SDS011;29213;50.770;7.298;2022-11-03T08:10:12;9.23;;;2.70;;
43620;SDS011;29213;50.770;7.298;2022-11-03T08:12:38;10.63;;;3.03;;
43620;SDS011;29213;50.770;7.298;2022-11-03T08:15:04;11.13;;;2.85;;
43620;SDS011;29213;50.770;7.298;2022-11-03T08:17:37;10.73;;;2.70;;
43620;SDS011;29213;50.770;7.298;2022-11-03T08:20:03;5.55;;;2.00;;
43620;SDS011;29213;50.770;7.298;2022-11-03T08:22:34;9.07;;;2.47;;
43620;SDS011;29213;50.770;7.298;2022-11-03T08:25:00;7.95;;;2.65;;
43620;SDS011;29213;50.770;7.298;2022-11-03T08:27:31;6.95;;;2.08;;
43620;SDS011;29213;50.770;7.298;2022-11-03T08:29:57;9.57;;;2.45;;
43620;SDS011;29213;50.770;7.298;2022-11-03T08:32:23;7.32;;;2.20;;
43620;SDS011;29213;50.770;7.298;2022-11-03T08:34:49;6.45;;;2.22;;
43620;SDS011;29213;50.770;7.298;2022-11-03T08:37:15;7.43;;;2.20;;
43620;SDS011;29213;50.770;7.298;2022-11-03T08:39:41;9.25;;;2.65;;
43620;SDS011;29213;50.770;7.298;2022-11-03T08:42:07;7.90;;;2.58;;
43620;SDS011;29213;50.770;7.298;2022-11-03T08:44:33;13.30;;;2.60;;
43620;SDS011;29213;50.770;7.298;2022-11-03T08:46:58;7.18;;;2.70;;
43620;SDS011;29213;50.770;7.298;2022-11-03T08:49:32;8.85;;;2.88;;
43620;SDS011;29213;50.770;7.298;2022-11-03T08:51:58;7.63;;;2.30;;
43620;SDS011;29213;50.770;7.298;2022-11-03T08:54:24;10.63;;;2.90;;
43620;SDS011;29213;50.770;7.298;2022-11-03T08:56:50;9.07;;;2.70;;
43620;SDS011;29213;50.770;7.298;2022-11-03T08:59:16;10.45;;;2.88;;
43620;SDS011;29213;50.770;7.298;2022-11-03T09:01:42;9.07;;;2.63;;
43620;SDS011;29213;50.770;7.298;2022-11-03T09:04:08;7.13;;;2.35;;
43620;SDS011;29213;50.770;7.298;2022-11-03T09:06:34;6.45;;;2.45;;
43620;SDS011;29213;50.770;7.298;2022-11-03T09:08:59;6.72;;;2.00;;
43620;SDS011;29213;50.770;7.298;2022-11-03T09:11:27;9.40;;;2.60;;
43620;SDS011;29213;50.770;7.298;2022-11-03T09:13:53;7.75;;;2.75;;
43620;SDS011;29213;50.770;7.298;2022-11-03T09:16:18;8.98;;;2.70;;
43620;SDS011;29213;50.770;7.298;2022-11-03T09:18:43;8.60;;;2.30;;
43620;SDS011;29213;50.770;7.298;2022-11-03T09:23:41;6.93;;;2.40;;
43620;SDS011;29213;50.770;7.298;2022-11-03T09:26:06;8.25;;;2.67;;
43620;SDS011;29213;50.770;7.298;2022-11-03T09:28:32;7.95;;;2.20;;
43620;SDS011;29213;50.770;7.298;2022-11-03T09:30:58;8.10;;;2.40;;
43620;SDS011;29213;50.770;7.298;2022-11-03T09:33:24;7.97;;;2.35;;
43620;SDS011;29213;50.770;7.298;2022-11-03T09:35:49;7.63;;;2.15;;
43620;SDS011;29213;50.770;7.298;2022-11-03T09:38:15;8.75;;;2.33;;
43620;SDS011;29213;50.770;7.298;2022-11-03T09:40:41;8.85;;;2.55;;
43620;SDS011;29213;50.770;7.298;2022-11-03T09:43:07;8.52;;;2.75;;
43620;SDS011;29213;50.770;7.298;2022-11-03T09:45:33;7.13;;;2.42;;
43620;SDS011;29213;50.770;7.298;2022-11-03T09:47:59;7.80;;;2.17;;
43620;SDS011;29213;50.770;7.298;2022-11-03T09:50:31;7.32;;;2.38;;
43620;SDS011;29213;50.770;7.298;2022-11-03T09:52:57;6.45;;;2.30;;
43620;SDS011;29213;50.770;7.298;2022-11-03T09:55:24;6.75;;;2.25;;
43620;SDS011;29213;50.770;7.298;2022-11-03T09:57:51;8.65;;;2.42;;
43620;SDS011;29213;50.770;7.298;2022-11-03T10:00:20;7.10;;;2.22;;
43620;SDS011;29213;50.770;7.298;2022-11-03T10:02:47;6.30;;;2.33;;
43620;SDS011;29213;50.770;7.298;2022-11-03T10:05:16;11.13;;;2.65;;
43620;SDS011;29213;50.770;7.298;2022-11-03T10:07:46;10.55;;;2.90;;
43620;SDS011;29213;50.770;7.298;2022-11-03T10:10:16;6.35;;;2.55;;
43620;SDS011;29213;50.770;7.298;2022-11-03T10:12:44;6.97;;;3.10;;
43620;SDS011;29213;50.770;7.298;2022-11-03T10:15:15;7.50;;;2.70;;
43620;SDS011;29213;50.770;7.298;2022-11-03T10:17:42;9.32;;;3.30;;
43620;SDS011;29213;50.770;7.298;2022-11-03T10:20:10;8.25;;;2.90;;
43620;SDS011;29213;50.770;7.298;2022-11-03T10:22:38;7.57;;;2.90;;
43620;SDS011;29213;50.770;7.298;2022-11-03T10:38:41;7.57;;;2.97;;
43620;SDS011;29213;50.770;7.298;2022-11-03T10:41:09;7.28;;;2.70;;
43620;SDS011;29213;50.770;7.298;2022-11-03T10:43:40;9.55;;;2.42;;
43620;SDS011;29213;50.770;7.298;2022-11-03T10:46:20;14.25;;;4.40;;
43620;SDS011;29213;50.770;7.298;2022-11-03T10:49:03;8.57;;;2.72;;
43620;SDS011;29213;50.770;7.298;2022-11-03T10:51:36;7.90;;;3.40;;
43620;SDS011;29213;50.770;7.298;2022-11-03T10:54:02;8.88;;;3.58;;
43620;SDS011;29213;50.770;7.298;2022-11-03T10:56:29;8.45;;;2.70;;
43620;SDS011;29213;50.770;7.298;2022-11-03T10:58:57;10.13;;;2.72;;
43620;SDS011;29213;50.770;7.298;2022-11-03T11:04:04;9.88;;;4.13;;
43620;SDS011;29213;50.770;7.298;2022-11-03T11:06:38;8.25;;;3.63;;
43620;SDS011;29213;50.770;7.298;2022-11-03T11:09:05;9.70;;;3.03;;
43620;SDS011;29213;50.770;7.298;2022-11-03T11:11:34;8.80;;;2.60;;
43620;SDS011;29213;50.770;7.298;2022-11-03T11:16:46;9.88;;;3.47;;
43620;SDS011;29213;50.770;7.298;2022-11-03T11:19:15;11.65;;;4.32;;
43620;SDS011;29213;50.770;7.298;2022-11-03T11:24:09;10.75;;;2.92;;
43620;SDS011;29213;50.770;7.298;2022-11-03T11:26:36;7.47;;;2.88;;
43620;SDS011;29213;50.770;7.298;2022-11-03T11:31:44;8.55;;;3.53;;
43620;SDS011;29213;50.770;7.298;2022-11-03T11:42:08;8.35;;;4.05;;
43620;SDS011;29213;50.770;7.298;2022-11-03T11:50:24;9.65;;;3.63;;
43620;SDS011;29213;50.770;7.298;2022-11-03T11:58:03;10.38;;;4.18;;
43620;SDS011;29213;50.770;7.298;2022-11-03T12:00:37;6.97;;;3.20;;
43620;SDS011;29213;50.770;7.298;2022-11-03T12:03:03;7.22;;;3.38;;
43620;SDS011;29213;50.770;7.298;2022-11-03T12:05:31;9.65;;;2.70;;
43620;SDS011;29213;50.770;7.298;2022-11-03T12:07:58;7.78;;;2.78;;
43620;SDS011;29213;50.770;7.298;2022-11-03T12:10:25;9.43;;;3.17;;
43620;SDS011;29213;50.770;7.298;2022-11-03T12:12:56;6.32;;;2.75;;
43620;SDS011;29213;50.770;7.298;2022-11-03T12:18:28;6.97;;;3.10;;
43620;SDS011;29213;50.770;7.298;2022-11-03T12:24:23;6.78;;;3.00;;
43620;SDS011;29213;50.770;7.298;2022-11-03T12:26:55;6.28;;;2.90;;
43620;SDS011;29213;50.770;7.298;2022-11-03T12:29:21;8.30;;;3.10;;
43620;SDS011;29213;50.770;7.298;2022-11-03T12:31:47;9.73;;;3.03;;
43620;SDS011;29213;50.770;7.298;2022-11-03T12:34:13;6.90;;;3.00;;
43620;SDS011;29213;50.770;7.298;2022-11-03T12:36:38;8.85;;;3.72;;
43620;SDS011;29213;50.770;7.298;2022-11-03T12:39:03;8.85;;;3.25;;
43620;SDS011;29213;50.770;7.298;2022-11-03T12:41:29;9.48;;;3.42;;
43620;SDS011;29213;50.770;7.298;2022-11-03T12:43:54;8.38;;;3.38;;
43620;SDS011;29213;50.770;7.298;2022-11-03T12:46:20;6.30;;;2.80;;
43620;SDS011;29213;50.770;7.298;2022-11-03T12:48:46;7.35;;;2.95;;
43620;SDS011;29213;50.770;7.298;2022-11-03T12:51:13;5.65;;;2.60;;
43620;SDS011;29213;50.770;7.298;2022-11-03T12:53:39;7.75;;;2.70;;
43620;SDS011;29213;50.770;7.298;2022-11-03T12:56:05;8.43;;;2.50;;
43620;SDS011;29213;50.770;7.298;2022-11-03T12:58:31;5.80;;;2.50;;
43620;SDS011;29213;50.770;7.298;2022-11-03T13:00:57;4.78;;;2.30;;
43620;SDS011;29213;50.770;7.298;2022-11-03T13:03:23;6.40;;;2.50;;
43620;SDS011;29213;50.770;7.298;2022-11-03T13:05:48;6.43;;;2.72;;
43620;SDS011;29213;50.770;7.298;2022-11-03T13:08:14;6.07;;;2.45;;
43620;SDS011;29213;50.770;7.298;2022-11-03T13:10:39;4.65;;;2.40;;
43620;SDS011;29213;50.770;7.298;2022-11-03T13:13:05;5.78;;;2.80;;
43620;SDS011;29213;50.770;7.298;2022-11-03T13:15:31;5.80;;;2.35;;
43620;SDS011;29213;50.770;7.298;2022-11-03T13:17:56;7.72;;;2.70;;
43620;SDS011;29213;50.770;7.298;2022-11-03T13:20:21;6.13;;;2.50;;
43620;SDS011;29213;50.770;7.298;2022-11-03T13:22:47;8.50;;;2.85;;
43620;SDS011;29213;50.770;7.298;2022-11-03T13:25:12;6.47;;;2.72;;
43620;SDS011;29213;50.770;7.298;2022-11-03T13:27:38;9.07;;;3.17;;
43620;SDS011;29213;50.770;7.298;2022-11-03T13:30:04;6.30;;;2.78;;
43620;SDS011;29213;50.770;7.298;2022-11-03T13:32:30;7.38;;;2.50;;
43620;SDS011;29213;50.770;7.298;2022-11-03T13:34:55;8.50;;;3.13;;
43620;SDS011;29213;50.770;7.298;2022-11-03T13:37:21;7.50;;;3.35;;
43620;SDS011;29213;50.770;7.298;2022-11-03T13:39:46;6.78;;;2.78;;
43620;SDS011;29213;50.770;7.298;2022-11-03T13:42:12;6.57;;;2.28;;
43620;SDS011;29213;50.770;7.298;2022-11-03T13:44:37;8.50;;;2.97;;
43620;SDS011;29213;50.770;7.298;2022-11-03T13:47:03;6.18;;;3.13;;
43620;SDS011;29213;50.770;7.298;2022-11-03T13:49:28;7.28;;;3.15;;
43620;SDS011;29213;50.770;7.298;2022-11-03T13:51:54;7.28;;;3.60;;
43620;SDS011;29213;50.770;7.298;2022-11-03T13:54:19;5.88;;;2.42;;
43620;SDS011;29213;50.770;7.298;2022-11-03T13:56:45;5.75;;;2.30;;
43620;SDS011;29213;50.770;7.298;2022-11-03T13:59:10;7.95;;;2.30;;
43620;SDS011;29213;50.770;7.298;2022-11-03T14:01:35;5.05;;;2.33;;
43620;SDS011;29213;50.770;7.298;2022-11-03T14:04:01;4.32;;;2.40;;
43620;SDS011;29213;50.770;7.298;2022-11-03T14:06:27;5.57;;;2.70;;
43620;SDS011;29213;50.770;7.298;2022-11-03T14:08:52;6.45;;;2.45;;
43620;SDS011;29213;50.770;7.298;2022-11-03T14:11:18;5.75;;;2.83;;
43620;SDS011;29213;50.770;7.298;2022-11-03T14:14:02;5.47;;;2.30;;
43620;SDS011;29213;50.770;7.298;2022-11-03T14:16:27;5.45;;;2.60;;
43620;SDS011;29213;50.770;7.298;2022-11-03T14:18:52;6.22;;;2.70;;
43620;SDS011;29213;50.770;7.298;2022-11-03T14:21:18;7.20;;;3.33;;
43620;SDS011;29213;50.770;7.298;2022-11-03T14:23:43;8.45;;;3.17;;
43620;SDS011;29213;50.770;7.298;2022-11-03T14:26:09;7.45;;;4.57;;
43620;SDS011;29213;50.770;7.298;2022-11-03T14:28:34;8.27;;;4.05;;
43620;SDS011;29213;50.770;7.298;2022-11-03T14:31:00;7.03;;;3.63;;
43620;SDS011;29213;50.770;7.298;2022-11-03T14:33:27;6.60;;;2.90;;
43620;SDS011;29213;50.770;7.298;2022-11-03T14:35:53;6.88;;;3.40;;
43620;SDS011;29213;50.770;7.298;2022-11-03T14:38:18;7.00;;;2.83;;
43620;SDS011;29213;50.770;7.298;2022-11-03T14:40:44;6.90;;;2.55;;
43620;SDS011;29213;50.770;7.298;2022-11-03T14:43:27;5.32;;;2.20;;
43620;SDS011;29213;50.770;7.298;2022-11-03T14:45:53;5.25;;;2.38;;
43620;SDS011;29213;50.770;7.298;2022-11-03T14:48:18;7.28;;;2.88;;
43620;SDS011;29213;50.770;7.298;2022-11-03T14:50:44;7.35;;;3.40;;
43620;SDS011;29213;50.770;7.298;2022-11-03T14:53:10;7.20;;;3.00;;
43620;SDS011;29213;50.770;7.298;2022-11-03T14:55:35;6.82;;;3.55;;
43620;SDS011;29213;50.770;7.298;2022-11-03T14:58:00;8.60;;;3.70;;
43620;SDS011;29213;50.770;7.298;2022-11-03T15:00:26;9.13;;;3.72;;
43620;SDS011;29213;50.770;7.298;2022-11-03T15:02:51;12.98;;;5.82;;
43620;SDS011;29213;50.770;7.298;2022-11-03T15:05:17;8.48;;;4.20;;
43620;SDS011;29213;50.770;7.298;2022-11-03T15:08:01;7.40;;;3.40;;
43620;SDS011;29213;50.770;7.298;2022-11-03T15:10:26;7.28;;;3.30;;
43620;SDS011;29213;50.770;7.298;2022-11-03T15:12:51;6.00;;;2.75;;
43620;SDS011;29213;50.770;7.298;2022-11-03T15:15:17;6.80;;;2.90;;
43620;SDS011;29213;50.770;7.298;2022-11-03T15:17:42;9.38;;;3.63;;
43620;SDS011;29213;50.770;7.298;2022-11-03T15:20:08;8.55;;;3.25;;
43620;SDS011;29213;50.770;7.298;2022-11-03T15:22:34;6.82;;;3.33;;
43620;SDS011;29213;50.770;7.298;2022-11-03T15:24:59;6.95;;;3.33;;
43620;SDS011;29213;50.770;7.298;2022-11-03T15:27:25;8.18;;;4.03;;
43620;SDS011;29213;50.770;7.298;2022-11-03T15:29:50;8.68;;;4.07;;
43620;SDS011;29213;50.770;7.298;2022-11-03T15:32:15;8.00;;;4.10;;
43620;SDS011;29213;50.770;7.298;2022-11-03T15:34:41;11.65;;;4.53;;
43620;SDS011;29213;50.770;7.298;2022-11-03T15:37:06;7.88;;;4.38;;
43620;SDS011;29213;50.770;7.298;2022-11-03T15:39:32;8.07;;;4.18;;
43620;SDS011;29213;50.770;7.298;2022-11-03T15:41:57;11.07;;;4.47;;
43620;SDS011;29213;50.770;7.298;2022-11-03T15:44:24;10.70;;;4.70;;
43620;SDS011;29213;50.770;7.298;2022-11-03T15:46:50;8.05;;;4.35;;
43620;SDS011;29213;50.770;7.298;2022-11-03T15:49:15;7.75;;;3.90;;
43620;SDS011;29213;50.770;7.298;2022-11-03T15:51:41;13.00;;;5.55;;
43620;SDS011;29213;50.770;7.298;2022-11-03T15:54:06;8.80;;;5.07;;
43620;SDS011;29213;50.770;7.298;2022-11-03T15:56:32;12.70;;;5.65;;
43620;SDS011;29213;50.770;7.298;2022-11-03T15:58:57;10.40;;;5.70;;
43620;SDS011;29213;50.770;7.298;2022-11-03T16:01:23;8.07;;;4.43;;
43620;SDS011;29213;50.770;7.298;2022-11-03T16:03:48;8.75;;;4.20;;
43620;SDS011;29213;50.770;7.298;2022-11-03T16:06:14;9.05;;;4.80;;
43620;SDS011;29213;50.770;7.298;2022-11-03T16:08:39;7.82;;;4.43;;
43620;SDS011;29213;50.770;7.298;2022-11-03T16:11:05;7.20;;;4.47;;
43620;SDS011;29213;50.770;7.298;2022-11-03T16:13:30;8.52;;;4.28;;
43620;SDS011;29213;50.770;7.298;2022-11-03T16:15:55;8.50;;;3.65;;